sensor_id;sensor_type;location;lat;lon;timestamp;P1;durP1;ratioP1;P2;durP2;ratioP2
45039;SDS011;30778;53.574;7.770;2024-02-16T00:01:08;4.47;;;2.03;;
45039;SDS011;30778;53.574;7.770;2024-02-16T00:03:48;3.85;;;1.90;;
45039;SDS011;30778;53.574;7.770;2024-02-16T00:06:14;5.45;;;2.30;;
45039;SDS011;30778;53.574;7.770;2024-02-16T00:08:39;6.32;;;1.55;;
45039;SDS011;30778;53.574;7.770;2024-02-16T00:11:05;3.20;;;2.10;;
45039;SDS011;30778;53.574;7.770;2024-02-16T00:13:31;3.90;;;1.65;;
45039;SDS011;30778;53.574;7.770;2024-02-16T00:15:57;4.43;;;2.13;;
45039;SDS011;30778;53.574;7.770;2024-02-16T00:18:23;10.52;;;2.90;;
45039;SDS011;30778;53.574;7.770;2024-02-16T00:20:49;7.88;;;2.25;;
45039;SDS011;30778;53.574;7.770;2024-02-16T00:23:14;4.82;;;2.25;;
45039;SDS011;30778;53.574;7.770;2024-02-16T00:25:41;4.30;;;2.10;;
45039;SDS011;30778;53.574;7.770;2024-02-16T00:28:07;3.65;;;1.95;;
45039;SDS011;30778;53.574;7.770;2024-02-16T00:30:33;4.72;;;2.33;;
45039;SDS011;30778;53.574;7.770;2024-02-16T00:32:59;4.03;;;2.40;;
45039;SDS011;30778;53.574;7.770;2024-02-16T00:35:26;5.13;;;2.65;;
45039;SDS011;30778;53.574;7.770;2024-02-16T00:37:52;5.75;;;1.85;;
45039;SDS011;30778;53.574;7.770;2024-02-16T00:40:17;5.43;;;2.28;;
45039;SDS011;30778;53.574;7.770;2024-02-16T00:42:43;4.53;;;2.20;;
45039;SDS011;30778;53.574;7.770;2024-02-16T00:45:08;8.02;;;1.85;;
45039;SDS011;30778;53.574;7.770;2024-02-16T00:47:37;4.80;;;2.00;;
45039;SDS011;30778;53.574;7.770;2024-02-16T00:50:02;3.65;;;2.25;;
45039;SDS011;30778;53.574;7.770;2024-02-16T00:52:30;4.65;;;2.25;;
45039;SDS011;30778;53.574;7.770;2024-02-16T00:54:55;8.48;;;2.83;;
45039;SDS011;30778;53.574;7.770;2024-02-16T00:57:23;3.25;;;1.90;;
45039;SDS011;30778;53.574;7.770;2024-02-16T00:59:49;5.15;;;1.98;;
45039;SDS011;30778;53.574;7.770;2024-02-16T01:02:15;6.45;;;2.45;;
45039;SDS011;30778;53.574;7.770;2024-02-16T01:04:42;8.50;;;1.98;;
45039;SDS011;30778;53.574;7.770;2024-02-16T01:07:07;4.05;;;2.17;;
45039;SDS011;30778;53.574;7.770;2024-02-16T01:09:33;4.65;;;2.50;;
45039;SDS011;30778;53.574;7.770;2024-02-16T01:12:01;5.60;;;2.28;;
45039;SDS011;30778;53.574;7.770;2024-02-16T01:14:27;10.18;;;2.70;;
45039;SDS011;30778;53.574;7.770;2024-02-16T01:16:52;5.05;;;2.50;;
45039;SDS011;30778;53.574;7.770;2024-02-16T01:19:18;4.45;;;2.50;;
45039;SDS011;30778;53.574;7.770;2024-02-16T01:21:43;4.38;;;2.53;;
45039;SDS011;30778;53.574;7.770;2024-02-16T01:24:17;5.28;;;2.83;;
45039;SDS011;30778;53.574;7.770;2024-02-16T01:26:42;3.28;;;2.10;;
45039;SDS011;30778;53.574;7.770;2024-02-16T01:29:09;7.65;;;2.08;;
45039;SDS011;30778;53.574;7.770;2024-02-16T01:31:36;9.98;;;2.80;;
45039;SDS011;30778;53.574;7.770;2024-02-16T01:34:09;5.40;;;2.53;;
45039;SDS011;30778;53.574;7.770;2024-02-16T01:36:37;6.32;;;2.60;;
45039;SDS011;30778;53.574;7.770;2024-02-16T01:39:03;8.35;;;2.83;;
45039;SDS011;30778;53.574;7.770;2024-02-16T01:41:29;8.43;;;2.53;;
45039;SDS011;30778;53.574;7.770;2024-02-16T01:43:57;3.83;;;2.55;;
45039;SDS011;30778;53.574;7.770;2024-02-16T01:46:24;5.63;;;3.40;;
45039;SDS011;30778;53.574;7.770;2024-02-16T01:48:49;5.00;;;2.22;;
45039;SDS011;30778;53.574;7.770;2024-02-16T01:51:23;5.15;;;2.78;;
45039;SDS011;30778;53.574;7.770;2024-02-16T01:53:51;4.82;;;2.53;;
45039;SDS011;30778;53.574;7.770;2024-02-16T01:56:17;3.92;;;2.42;;
45039;SDS011;30778;53.574;7.770;2024-02-16T01:58:46;5.75;;;3.10;;
45039;SDS011;30778;53.574;7.770;2024-02-16T02:01:13;4.03;;;2.70;;
45039;SDS011;30778;53.574;7.770;2024-02-16T02:03:39;7.00;;;1.77;;
45039;SDS011;30778;53.574;7.770;2024-02-16T02:06:04;4.28;;;2.65;;
45039;SDS011;30778;53.574;7.770;2024-02-16T02:08:30;4.68;;;2.42;;
45039;SDS011;30778;53.574;7.770;2024-02-16T02:10:55;11.68;;;3.58;;
45039;SDS011;30778;53.574;7.770;2024-02-16T02:13:21;6.25;;;3.63;;
45039;SDS011;30778;53.574;7.770;2024-02-16T02:15:47;5.22;;;2.45;;
45039;SDS011;30778;53.574;7.770;2024-02-16T02:18:13;4.97;;;2.35;;
45039;SDS011;30778;53.574;7.770;2024-02-16T02:20:39;4.20;;;2.50;;
45039;SDS011;30778;53.574;7.770;2024-02-16T02:23:07;5.82;;;2.30;;
45039;SDS011;30778;53.574;7.770;2024-02-16T02:25:33;7.50;;;2.45;;
45039;SDS011;30778;53.574;7.770;2024-02-16T02:27:58;6.65;;;2.70;;
45039;SDS011;30778;53.574;7.770;2024-02-16T02:30:26;7.15;;;3.20;;
45039;SDS011;30778;53.574;7.770;2024-02-16T02:32:52;5.35;;;3.17;;
45039;SDS011;30778;53.574;7.770;2024-02-16T02:35:20;4.50;;;2.58;;
45039;SDS011;30778;53.574;7.770;2024-02-16T02:37:46;5.90;;;2.35;;
45039;SDS011;30778;53.574;7.770;2024-02-16T02:40:11;6.88;;;2.88;;
45039;SDS011;30778;53.574;7.770;2024-02-16T02:42:37;6.93;;;2.30;;
45039;SDS011;30778;53.574;7.770;2024-02-16T02:45:03;4.45;;;1.85;;
45039;SDS011;30778;53.574;7.770;2024-02-16T02:47:31;4.28;;;1.77;;
45039;SDS011;30778;53.574;7.770;2024-02-16T02:49:57;10.50;;;1.95;;
45039;SDS011;30778;53.574;7.770;2024-02-16T02:52:22;7.28;;;2.33;;
45039;SDS011;30778;53.574;7.770;2024-02-16T02:54:48;4.63;;;2.33;;
45039;SDS011;30778;53.574;7.770;2024-02-16T02:57:14;3.50;;;2.05;;
45039;SDS011;30778;53.574;7.770;2024-02-16T02:59:41;8.15;;;2.00;;
45039;SDS011;30778;53.574;7.770;2024-02-16T03:02:06;9.00;;;2.13;;
45039;SDS011;30778;53.574;7.770;2024-02-16T03:04:32;4.43;;;2.35;;
45039;SDS011;30778;53.574;7.770;2024-02-16T03:06:58;6.88;;;2.45;;
45039;SDS011;30778;53.574;7.770;2024-02-16T03:09:24;4.05;;;1.95;;
45039;SDS011;30778;53.574;7.770;2024-02-16T03:11:49;4.53;;;2.22;;
45039;SDS011;30778;53.574;7.770;2024-02-16T03:14:19;7.03;;;2.10;;
45039;SDS011;30778;53.574;7.770;2024-02-16T03:16:44;3.70;;;2.10;;
45039;SDS011;30778;53.574;7.770;2024-02-16T03:19:10;4.45;;;1.80;;
45039;SDS011;30778;53.574;7.770;2024-02-16T03:21:36;4.50;;;2.00;;
45039;SDS011;30778;53.574;7.770;2024-02-16T03:24:03;4.70;;;2.22;;
45039;SDS011;30778;53.574;7.770;2024-02-16T03:26:31;5.65;;;1.95;;
45039;SDS011;30778;53.574;7.770;2024-02-16T03:28:58;9.48;;;1.92;;
45039;SDS011;30778;53.574;7.770;2024-02-16T03:31:25;3.25;;;2.65;;
45039;SDS011;30778;53.574;7.770;2024-02-16T03:33:52;5.13;;;2.13;;
45039;SDS011;30778;53.574;7.770;2024-02-16T03:36:19;4.28;;;2.08;;
45039;SDS011;30778;53.574;7.770;2024-02-16T03:38:48;4.32;;;2.35;;
45039;SDS011;30778;53.574;7.770;2024-02-16T03:41:20;6.30;;;2.78;;
45039;SDS011;30778;53.574;7.770;2024-02-16T03:43:50;5.55;;;1.95;;
45039;SDS011;30778;53.574;7.770;2024-02-16T03:46:16;5.95;;;2.33;;
45039;SDS011;30778;53.574;7.770;2024-02-16T03:48:41;5.18;;;1.70;;
45039;SDS011;30778;53.574;7.770;2024-02-16T03:51:07;5.10;;;1.75;;
45039;SDS011;30778;53.574;7.770;2024-02-16T03:53:32;7.10;;;1.90;;
45039;SDS011;30778;53.574;7.770;2024-02-16T03:55:59;3.42;;;1.58;;
45039;SDS011;30778;53.574;7.770;2024-02-16T03:58:24;4.05;;;2.15;;
45039;SDS011;30778;53.574;7.770;2024-02-16T04:00:50;3.85;;;2.47;;
45039;SDS011;30778;53.574;7.770;2024-02-16T04:03:17;3.35;;;1.58;;
45039;SDS011;30778;53.574;7.770;2024-02-16T04:05:43;2.35;;;1.63;;
45039;SDS011;30778;53.574;7.770;2024-02-16T04:08:09;3.25;;;2.08;;
45039;SDS011;30778;53.574;7.770;2024-02-16T04:10:35;3.42;;;1.95;;
45039;SDS011;30778;53.574;7.770;2024-02-16T04:13:01;4.40;;;2.17;;
45039;SDS011;30778;53.574;7.770;2024-02-16T04:15:27;3.38;;;1.80;;
45039;SDS011;30778;53.574;7.770;2024-02-16T04:17:52;3.75;;;2.22;;
45039;SDS011;30778;53.574;7.770;2024-02-16T04:20:18;3.65;;;2.05;;
45039;SDS011;30778;53.574;7.770;2024-02-16T04:22:45;4.03;;;2.03;;
45039;SDS011;30778;53.574;7.770;2024-02-16T04:25:10;2.97;;;2.00;;
45039;SDS011;30778;53.574;7.770;2024-02-16T04:27:36;6.15;;;2.05;;
45039;SDS011;30778;53.574;7.770;2024-02-16T04:30:02;3.92;;;2.35;;
45039;SDS011;30778;53.574;7.770;2024-02-16T04:32:28;4.25;;;2.10;;
45039;SDS011;30778;53.574;7.770;2024-02-16T04:34:53;4.25;;;1.65;;
45039;SDS011;30778;53.574;7.770;2024-02-16T04:37:22;2.38;;;1.52;;
45039;SDS011;30778;53.574;7.770;2024-02-16T04:39:49;4.57;;;1.85;;
45039;SDS011;30778;53.574;7.770;2024-02-16T04:42:16;3.15;;;1.45;;
45039;SDS011;30778;53.574;7.770;2024-02-16T04:44:47;8.20;;;1.65;;
45039;SDS011;30778;53.574;7.770;2024-02-16T04:47:16;5.65;;;2.50;;
45039;SDS011;30778;53.574;7.770;2024-02-16T04:49:46;3.92;;;2.17;;
45039;SDS011;30778;53.574;7.770;2024-02-16T04:52:12;4.50;;;1.83;;
45039;SDS011;30778;53.574;7.770;2024-02-16T04:54:39;3.88;;;2.35;;
45039;SDS011;30778;53.574;7.770;2024-02-16T04:57:05;4.28;;;2.38;;
45039;SDS011;30778;53.574;7.770;2024-02-16T04:59:31;7.78;;;2.10;;
45039;SDS011;30778;53.574;7.770;2024-02-16T05:01:56;4.60;;;2.22;;
45039;SDS011;30778;53.574;7.770;2024-02-16T05:04:22;8.50;;;2.92;;
45039;SDS011;30778;53.574;7.770;2024-02-16T05:06:47;4.65;;;2.40;;
45039;SDS011;30778;53.574;7.770;2024-02-16T05:09:13;4.28;;;2.78;;
45039;SDS011;30778;53.574;7.770;2024-02-16T05:11:42;8.65;;;2.92;;
45039;SDS011;30778;53.574;7.770;2024-02-16T05:14:08;3.20;;;2.10;;
45039;SDS011;30778;53.574;7.770;2024-02-16T05:16:37;5.22;;;3.10;;
45039;SDS011;30778;53.574;7.770;2024-02-16T05:19:03;4.20;;;2.10;;
45039;SDS011;30778;53.574;7.770;2024-02-16T05:21:28;4.75;;;1.58;;
45039;SDS011;30778;53.574;7.770;2024-02-16T05:23:54;4.47;;;2.20;;
45039;SDS011;30778;53.574;7.770;2024-02-16T05:26:20;6.72;;;2.33;;
45039;SDS011;30778;53.574;7.770;2024-02-16T05:28:45;4.80;;;2.08;;
45039;SDS011;30778;53.574;7.770;2024-02-16T05:31:15;7.18;;;2.42;;
45039;SDS011;30778;53.574;7.770;2024-02-16T05:33:43;5.32;;;2.05;;
45039;SDS011;30778;53.574;7.770;2024-02-16T05:36:10;4.93;;;2.10;;
45039;SDS011;30778;53.574;7.770;2024-02-16T05:38:37;4.63;;;2.30;;
45039;SDS011;30778;53.574;7.770;2024-02-16T05:41:07;5.32;;;2.78;;
45039;SDS011;30778;53.574;7.770;2024-02-16T05:43:33;7.20;;;1.88;;
45039;SDS011;30778;53.574;7.770;2024-02-16T05:46:00;3.92;;;2.42;;
45039;SDS011;30778;53.574;7.770;2024-02-16T05:48:25;5.43;;;2.15;;
45039;SDS011;30778;53.574;7.770;2024-02-16T05:50:57;5.65;;;2.55;;
45039;SDS011;30778;53.574;7.770;2024-02-16T05:53:26;8.48;;;2.83;;
45039;SDS011;30778;53.574;7.770;2024-02-16T05:55:53;2.97;;;1.73;;
45039;SDS011;30778;53.574;7.770;2024-02-16T05:58:24;4.57;;;2.35;;
45039;SDS011;30778;53.574;7.770;2024-02-16T06:00:54;5.20;;;2.67;;
45039;SDS011;30778;53.574;7.770;2024-02-16T06:03:23;9.30;;;2.45;;
45039;SDS011;30778;53.574;7.770;2024-02-16T06:05:48;3.05;;;2.22;;
45039;SDS011;30778;53.574;7.770;2024-02-16T06:08:14;9.60;;;2.15;;
45039;SDS011;30778;53.574;7.770;2024-02-16T06:10:42;5.78;;;2.85;;
45039;SDS011;30778;53.574;7.770;2024-02-16T06:13:08;3.58;;;1.90;;
45039;SDS011;30778;53.574;7.770;2024-02-16T06:15:33;6.72;;;2.45;;
45039;SDS011;30778;53.574;7.770;2024-02-16T06:17:59;7.45;;;2.17;;
45039;SDS011;30778;53.574;7.770;2024-02-16T06:20:25;5.68;;;2.30;;
45039;SDS011;30778;53.574;7.770;2024-02-16T06:22:51;8.73;;;2.75;;
45039;SDS011;30778;53.574;7.770;2024-02-16T06:25:16;5.38;;;2.10;;
45039;SDS011;30778;53.574;7.770;2024-02-16T06:27:42;3.30;;;1.75;;
45039;SDS011;30778;53.574;7.770;2024-02-16T06:30:07;6.13;;;2.40;;
45039;SDS011;30778;53.574;7.770;2024-02-16T06:32:37;8.18;;;2.90;;
45039;SDS011;30778;53.574;7.770;2024-02-16T06:35:03;4.90;;;1.85;;
45039;SDS011;30778;53.574;7.770;2024-02-16T06:37:28;5.45;;;2.72;;
45039;SDS011;30778;53.574;7.770;2024-02-16T06:39:54;3.10;;;2.22;;
45039;SDS011;30778;53.574;7.770;2024-02-16T06:42:20;5.85;;;2.17;;
45039;SDS011;30778;53.574;7.770;2024-02-16T06:44:45;6.15;;;2.50;;
45039;SDS011;30778;53.574;7.770;2024-02-16T06:47:11;9.43;;;2.20;;
45039;SDS011;30778;53.574;7.770;2024-02-16T06:49:36;4.70;;;1.63;;
45039;SDS011;30778;53.574;7.770;2024-02-16T06:52:02;6.80;;;2.00;;
45039;SDS011;30778;53.574;7.770;2024-02-16T06:54:28;3.92;;;2.28;;
45039;SDS011;30778;53.574;7.770;2024-02-16T06:56:53;3.83;;;1.98;;
45039;SDS011;30778;53.574;7.770;2024-02-16T06:59:19;5.70;;;1.98;;
45039;SDS011;30778;53.574;7.770;2024-02-16T07:01:45;3.83;;;2.03;;
45039;SDS011;30778;53.574;7.770;2024-02-16T07:04:10;6.38;;;2.08;;
45039;SDS011;30778;53.574;7.770;2024-02-16T07:06:36;5.93;;;2.17;;
45039;SDS011;30778;53.574;7.770;2024-02-16T07:09:01;7.93;;;2.80;;
45039;SDS011;30778;53.574;7.770;2024-02-16T07:11:27;3.08;;;1.65;;
45039;SDS011;30778;53.574;7.770;2024-02-16T07:13:53;3.22;;;1.92;;
45039;SDS011;30778;53.574;7.770;2024-02-16T07:16:19;6.15;;;1.95;;
45039;SDS011;30778;53.574;7.770;2024-02-16T07:18:44;8.40;;;2.65;;
45039;SDS011;30778;53.574;7.770;2024-02-16T07:21:10;4.95;;;1.90;;
45039;SDS011;30778;53.574;7.770;2024-02-16T07:23:36;4.32;;;1.67;;
45039;SDS011;30778;53.574;7.770;2024-02-16T07:26:02;4.82;;;2.03;;
45039;SDS011;30778;53.574;7.770;2024-02-16T07:28:28;3.47;;;2.28;;
45039;SDS011;30778;53.574;7.770;2024-02-16T07:30:53;3.28;;;2.03;;
45039;SDS011;30778;53.574;7.770;2024-02-16T07:33:20;4.90;;;2.20;;
45039;SDS011;30778;53.574;7.770;2024-02-16T07:35:46;3.58;;;1.52;;
45039;SDS011;30778;53.574;7.770;2024-02-16T07:38:12;2.58;;;2.10;;
45039;SDS011;30778;53.574;7.770;2024-02-16T07:40:37;5.10;;;2.05;;
45039;SDS011;30778;53.574;7.770;2024-02-16T07:43:03;5.13;;;1.85;;
45039;SDS011;30778;53.574;7.770;2024-02-16T07:45:30;5.25;;;1.80;;
45039;SDS011;30778;53.574;7.770;2024-02-16T07:47:55;6.70;;;1.88;;
45039;SDS011;30778;53.574;7.770;2024-02-16T07:50:21;5.03;;;1.98;;
45039;SDS011;30778;53.574;7.770;2024-02-16T07:52:48;5.85;;;1.67;;
45039;SDS011;30778;53.574;7.770;2024-02-16T07:55:15;2.92;;;2.08;;
45039;SDS011;30778;53.574;7.770;2024-02-16T07:57:43;6.50;;;1.95;;
45039;SDS011;30778;53.574;7.770;2024-02-16T08:00:09;4.82;;;1.63;;
45039;SDS011;30778;53.574;7.770;2024-02-16T08:02:36;4.35;;;1.50;;
45039;SDS011;30778;53.574;7.770;2024-02-16T08:05:02;5.45;;;1.75;;
45039;SDS011;30778;53.574;7.770;2024-02-16T08:07:28;4.20;;;2.00;;
45039;SDS011;30778;53.574;7.770;2024-02-16T08:09:55;6.03;;;1.98;;
45039;SDS011;30778;53.574;7.770;2024-02-16T08:12:20;4.35;;;1.63;;
45039;SDS011;30778;53.574;7.770;2024-02-16T08:14:46;5.95;;;1.13;;
45039;SDS011;30778;53.574;7.770;2024-02-16T08:17:12;2.13;;;1.38;;
45039;SDS011;30778;53.574;7.770;2024-02-16T08:19:38;5.38;;;1.42;;
45039;SDS011;30778;53.574;7.770;2024-02-16T08:22:04;5.07;;;1.85;;
45039;SDS011;30778;53.574;7.770;2024-02-16T08:24:34;2.72;;;1.10;;
45039;SDS011;30778;53.574;7.770;2024-02-16T08:27:00;4.10;;;2.00;;
45039;SDS011;30778;53.574;7.770;2024-02-16T08:29:25;5.75;;;1.38;;
45039;SDS011;30778;53.574;7.770;2024-02-16T08:31:52;5.68;;;1.73;;
45039;SDS011;30778;53.574;7.770;2024-02-16T08:34:18;3.72;;;1.50;;
45039;SDS011;30778;53.574;7.770;2024-02-16T08:36:44;3.30;;;1.05;;
45039;SDS011;30778;53.574;7.770;2024-02-16T08:39:11;8.95;;;2.17;;
45039;SDS011;30778;53.574;7.770;2024-02-16T08:41:38;2.70;;;1.75;;
45039;SDS011;30778;53.574;7.770;2024-02-16T08:44:08;2.70;;;1.08;;
45039;SDS011;30778;53.574;7.770;2024-02-16T08:46:35;4.15;;;1.67;;
45039;SDS011;30778;53.574;7.770;2024-02-16T08:49:05;2.47;;;1.38;;
45039;SDS011;30778;53.574;7.770;2024-02-16T08:51:34;3.08;;;1.45;;
45039;SDS011;30778;53.574;7.770;2024-02-16T08:54:00;6.68;;;1.75;;
45039;SDS011;30778;53.574;7.770;2024-02-16T08:56:26;2.70;;;1.00;;
45039;SDS011;30778;53.574;7.770;2024-02-16T08:58:52;6.03;;;1.38;;
45039;SDS011;30778;53.574;7.770;2024-02-16T09:01:18;1.80;;;1.15;;
45039;SDS011;30778;53.574;7.770;2024-02-16T09:03:43;3.17;;;1.48;;
45039;SDS011;30778;53.574;7.770;2024-02-16T09:06:09;4.47;;;1.58;;
45039;SDS011;30778;53.574;7.770;2024-02-16T09:08:35;7.80;;;2.08;;
45039;SDS011;30778;53.574;7.770;2024-02-16T09:11:01;11.57;;;1.92;;
45039;SDS011;30778;53.574;7.770;2024-02-16T09:13:34;4.95;;;1.33;;
45039;SDS011;30778;53.574;7.770;2024-02-16T09:16:01;6.63;;;1.80;;
45039;SDS011;30778;53.574;7.770;2024-02-16T09:18:28;6.70;;;2.13;;
45039;SDS011;30778;53.574;7.770;2024-02-16T09:20:54;5.60;;;1.77;;
45039;SDS011;30778;53.574;7.770;2024-02-16T09:23:20;2.65;;;1.33;;
45039;SDS011;30778;53.574;7.770;2024-02-16T09:25:45;6.05;;;3.78;;
45039;SDS011;30778;53.574;7.770;2024-02-16T09:28:11;3.80;;;1.20;;
45039;SDS011;30778;53.574;7.770;2024-02-16T09:30:37;3.63;;;2.25;;
45039;SDS011;30778;53.574;7.770;2024-02-16T09:33:03;5.05;;;2.28;;
45039;SDS011;30778;53.574;7.770;2024-02-16T09:35:29;3.45;;;1.80;;
45039;SDS011;30778;53.574;7.770;2024-02-16T09:37:55;3.40;;;1.67;;
45039;SDS011;30778;53.574;7.770;2024-02-16T09:40:21;5.72;;;1.95;;
45039;SDS011;30778;53.574;7.770;2024-02-16T09:42:47;1.92;;;0.75;;
45039;SDS011;30778;53.574;7.770;2024-02-16T09:45:17;2.95;;;1.67;;
45039;SDS011;30778;53.574;7.770;2024-02-16T09:47:43;6.35;;;2.25;;
45039;SDS011;30778;53.574;7.770;2024-02-16T09:50:10;2.90;;;1.25;;
45039;SDS011;30778;53.574;7.770;2024-02-16T09:52:36;4.55;;;1.67;;
45039;SDS011;30778;53.574;7.770;2024-02-16T09:55:02;4.00;;;1.55;;
45039;SDS011;30778;53.574;7.770;2024-02-16T09:57:28;3.85;;;1.50;;
45039;SDS011;30778;53.574;7.770;2024-02-16T09:59:54;4.72;;;1.40;;
45039;SDS011;30778;53.574;7.770;2024-02-16T10:02:20;3.83;;;1.67;;
45039;SDS011;30778;53.574;7.770;2024-02-16T10:04:46;7.22;;;2.00;;
45039;SDS011;30778;53.574;7.770;2024-02-16T10:07:12;4.93;;;1.52;;
45039;SDS011;30778;53.574;7.770;2024-02-16T10:09:38;4.15;;;2.00;;
45039;SDS011;30778;53.574;7.770;2024-02-16T10:12:08;3.88;;;1.67;;
45039;SDS011;30778;53.574;7.770;2024-02-16T10:14:33;5.63;;;1.67;;
45039;SDS011;30778;53.574;7.770;2024-02-16T10:17:03;3.92;;;2.08;;
45039;SDS011;30778;53.574;7.770;2024-02-16T10:22:07;5.55;;;1.73;;
45039;SDS011;30778;53.574;7.770;2024-02-16T10:24:33;5.80;;;2.33;;
45039;SDS011;30778;53.574;7.770;2024-02-16T10:26:58;4.55;;;2.33;;
45039;SDS011;30778;53.574;7.770;2024-02-16T10:29:24;3.80;;;2.13;;
45039;SDS011;30778;53.574;7.770;2024-02-16T10:31:52;6.78;;;1.70;;
45039;SDS011;30778;53.574;7.770;2024-02-16T10:34:18;4.75;;;2.58;;
45039;SDS011;30778;53.574;7.770;2024-02-16T10:36:45;6.63;;;2.20;;
45039;SDS011;30778;53.574;7.770;2024-02-16T10:39:14;6.57;;;2.20;;
45039;SDS011;30778;53.574;7.770;2024-02-16T10:41:41;5.43;;;1.75;;
45039;SDS011;30778;53.574;7.770;2024-02-16T10:44:07;4.97;;;1.30;;
45039;SDS011;30778;53.574;7.770;2024-02-16T10:46:33;4.05;;;2.15;;
45039;SDS011;30778;53.574;7.770;2024-02-16T10:48:59;4.70;;;2.13;;
45039;SDS011;30778;53.574;7.770;2024-02-16T10:51:45;3.90;;;1.67;;
45039;SDS011;30778;53.574;7.770;2024-02-16T10:54:13;4.30;;;1.92;;
45039;SDS011;30778;53.574;7.770;2024-02-16T10:56:42;9.25;;;1.73;;
45039;SDS011;30778;53.574;7.770;2024-02-16T10:59:08;4.25;;;1.88;;
45039;SDS011;30778;53.574;7.770;2024-02-16T11:01:42;4.35;;;1.83;;
45039;SDS011;30778;53.574;7.770;2024-02-16T11:04:10;3.35;;;1.70;;
45039;SDS011;30778;53.574;7.770;2024-02-16T11:06:47;4.00;;;2.25;;
45039;SDS011;30778;53.574;7.770;2024-02-16T11:09:23;4.20;;;2.60;;
45039;SDS011;30778;53.574;7.770;2024-02-16T11:11:52;6.45;;;1.85;;
45039;SDS011;30778;53.574;7.770;2024-02-16T11:14:20;4.38;;;2.85;;
45039;SDS011;30778;53.574;7.770;2024-02-16T11:16:48;4.65;;;2.42;;
45039;SDS011;30778;53.574;7.770;2024-02-16T11:19:13;4.20;;;2.55;;
45039;SDS011;30778;53.574;7.770;2024-02-16T11:21:55;6.57;;;2.88;;
45039;SDS011;30778;53.574;7.770;2024-02-16T11:24:29;3.75;;;1.90;;
45039;SDS011;30778;53.574;7.770;2024-02-16T11:27:02;2.88;;;1.83;;
45039;SDS011;30778;53.574;7.770;2024-02-16T11:29:32;4.30;;;2.97;;
45039;SDS011;30778;53.574;7.770;2024-02-16T11:32:03;4.25;;;2.42;;
45039;SDS011;30778;53.574;7.770;2024-02-16T11:36:59;5.63;;;2.80;;
45039;SDS011;30778;53.574;7.770;2024-02-16T11:39:25;3.03;;;2.58;;
45039;SDS011;30778;53.574;7.770;2024-02-16T11:42:00;4.88;;;2.92;;
45039;SDS011;30778;53.574;7.770;2024-02-16T11:44:35;7.53;;;2.88;;
45039;SDS011;30778;53.574;7.770;2024-02-16T11:47:02;5.60;;;2.83;;
45039;SDS011;30778;53.574;7.770;2024-02-16T11:49:29;5.88;;;2.78;;
45039;SDS011;30778;53.574;7.770;2024-02-16T11:51:55;5.07;;;2.50;;
45039;SDS011;30778;53.574;7.770;2024-02-16T11:54:21;6.47;;;3.30;;
45039;SDS011;30778;53.574;7.770;2024-02-16T11:56:48;8.35;;;3.90;;
45039;SDS011;30778;53.574;7.770;2024-02-16T11:59:17;6.65;;;2.78;;
45039;SDS011;30778;53.574;7.770;2024-02-16T12:01:53;6.03;;;3.60;;
45039;SDS011;30778;53.574;7.770;2024-02-16T12:04:23;7.00;;;2.92;;
45039;SDS011;30778;53.574;7.770;2024-02-16T12:06:50;7.47;;;3.78;;
45039;SDS011;30778;53.574;7.770;2024-02-16T12:09:17;9.32;;;3.38;;
45039;SDS011;30778;53.574;7.770;2024-02-16T12:11:43;6.45;;;3.10;;
45039;SDS011;30778;53.574;7.770;2024-02-16T12:14:09;6.85;;;3.97;;
45039;SDS011;30778;53.574;7.770;2024-02-16T12:16:36;4.47;;;3.63;;
45039;SDS011;30778;53.574;7.770;2024-02-16T12:19:03;4.45;;;3.25;;
45039;SDS011;30778;53.574;7.770;2024-02-16T12:21:30;6.82;;;3.83;;
45039;SDS011;30778;53.574;7.770;2024-02-16T12:23:55;8.27;;;3.75;;
45039;SDS011;30778;53.574;7.770;2024-02-16T12:26:21;7.88;;;3.85;;
45039;SDS011;30778;53.574;7.770;2024-02-16T12:28:47;5.32;;;3.92;;
45039;SDS011;30778;53.574;7.770;2024-02-16T12:31:19;6.72;;;3.63;;
45039;SDS011;30778;53.574;7.770;2024-02-16T12:33:46;5.60;;;4.32;;
45039;SDS011;30778;53.574;7.770;2024-02-16T12:36:11;5.45;;;4.72;;
45039;SDS011;30778;53.574;7.770;2024-02-16T12:38:36;8.38;;;4.53;;
45039;SDS011;30778;53.574;7.770;2024-02-16T12:41:02;7.60;;;5.15;;
45039;SDS011;30778;53.574;7.770;2024-02-16T12:43:27;7.22;;;4.22;;
45039;SDS011;30778;53.574;7.770;2024-02-16T12:45:53;10.93;;;6.03;;
45039;SDS011;30778;53.574;7.770;2024-02-16T12:48:18;13.13;;;7.20;;
45039;SDS011;30778;53.574;7.770;2024-02-16T12:50:45;15.55;;;7.05;;
45039;SDS011;30778;53.574;7.770;2024-02-16T12:53:13;9.82;;;7.63;;
45039;SDS011;30778;53.574;7.770;2024-02-16T12:55:39;12.57;;;7.47;;
45039;SDS011;30778;53.574;7.770;2024-02-16T12:58:04;22.88;;;8.65;;
45039;SDS011;30778;53.574;7.770;2024-02-16T13:00:30;11.68;;;7.55;;
45039;SDS011;30778;53.574;7.770;2024-02-16T13:02:55;13.07;;;7.10;;
45039;SDS011;30778;53.574;7.770;2024-02-16T13:05:20;9.57;;;5.85;;
45039;SDS011;30778;53.574;7.770;2024-02-16T13:07:46;9.88;;;6.57;;
45039;SDS011;30778;53.574;7.770;2024-02-16T13:10:15;9.32;;;6.10;;
45039;SDS011;30778;53.574;7.770;2024-02-16T13:12:44;11.90;;;6.20;;
45039;SDS011;30778;53.574;7.770;2024-02-16T13:15:10;7.88;;;5.30;;
45039;SDS011;30778;53.574;7.770;2024-02-16T13:17:45;6.65;;;4.38;;
45039;SDS011;30778;53.574;7.770;2024-02-16T13:20:11;6.22;;;5.07;;
45039;SDS011;30778;53.574;7.770;2024-02-16T13:22:37;7.10;;;4.22;;
45039;SDS011;30778;53.574;7.770;2024-02-16T13:25:05;7.40;;;4.70;;
45039;SDS011;30778;53.574;7.770;2024-02-16T13:27:34;7.55;;;5.22;;
45039;SDS011;30778;53.574;7.770;2024-02-16T13:30:00;7.47;;;3.78;;
45039;SDS011;30778;53.574;7.770;2024-02-16T13:32:26;9.30;;;3.92;;
45039;SDS011;30778;53.574;7.770;2024-02-16T13:34:52;6.80;;;4.15;;
45039;SDS011;30778;53.574;7.770;2024-02-16T13:37:17;8.10;;;3.50;;
45039;SDS011;30778;53.574;7.770;2024-02-16T13:39:45;4.75;;;3.72;;
45039;SDS011;30778;53.574;7.770;2024-02-16T13:42:12;5.38;;;3.50;;
45039;SDS011;30778;53.574;7.770;2024-02-16T13:44:38;4.25;;;2.78;;
45039;SDS011;30778;53.574;7.770;2024-02-16T13:47:04;5.97;;;2.40;;
45039;SDS011;30778;53.574;7.770;2024-02-16T13:49:29;4.50;;;2.60;;
45039;SDS011;30778;53.574;7.770;2024-02-16T13:51:55;4.43;;;2.70;;
45039;SDS011;30778;53.574;7.770;2024-02-16T13:54:25;4.60;;;2.40;;
45039;SDS011;30778;53.574;7.770;2024-02-16T13:56:51;4.88;;;2.45;;
45039;SDS011;30778;53.574;7.770;2024-02-16T13:59:18;3.53;;;2.05;;
45039;SDS011;30778;53.574;7.770;2024-02-16T14:01:43;4.20;;;2.03;;
45039;SDS011;30778;53.574;7.770;2024-02-16T14:04:09;3.40;;;1.15;;
45039;SDS011;30778;53.574;7.770;2024-02-16T14:06:35;4.32;;;1.90;;
45039;SDS011;30778;53.574;7.770;2024-02-16T14:09:03;3.08;;;1.42;;
45039;SDS011;30778;53.574;7.770;2024-02-16T14:11:36;1.63;;;0.60;;
45039;SDS011;30778;53.574;7.770;2024-02-16T14:14:02;2.85;;;1.17;;
45039;SDS011;30778;53.574;7.770;2024-02-16T14:16:28;4.60;;;0.70;;
45039;SDS011;30778;53.574;7.770;2024-02-16T14:18:55;2.83;;;0.80;;
45039;SDS011;30778;53.574;7.770;2024-02-16T14:21:20;0.93;;;0.35;;
45039;SDS011;30778;53.574;7.770;2024-02-16T14:23:47;2.50;;;1.17;;
45039;SDS011;30778;53.574;7.770;2024-02-16T14:26:14;3.00;;;0.55;;
45039;SDS011;30778;53.574;7.770;2024-02-16T14:28:42;2.13;;;0.50;;
45039;SDS011;30778;53.574;7.770;2024-02-16T14:31:08;1.27;;;0.40;;
45039;SDS011;30778;53.574;7.770;2024-02-16T14:33:34;1.67;;;0.52;;
45039;SDS011;30778;53.574;7.770;2024-02-16T14:36:00;0.75;;;0.30;;
45039;SDS011;30778;53.574;7.770;2024-02-16T14:38:26;1.40;;;0.47;;
45039;SDS011;30778;53.574;7.770;2024-02-16T14:40:53;2.35;;;0.47;;
45039;SDS011;30778;53.574;7.770;2024-02-16T14:43:18;1.33;;;0.50;;
45039;SDS011;30778;53.574;7.770;2024-02-16T14:45:44;1.90;;;0.73;;
45039;SDS011;30778;53.574;7.770;2024-02-16T14:48:10;1.60;;;0.70;;
45039;SDS011;30778;53.574;7.770;2024-02-16T14:50:36;1.40;;;0.80;;